sensor_id;sensor_type;location;lat;lon;timestamp;temperature;humidity
36416;DHT22;22447;44.530;18.620;2023-04-06T00:00:32;2.80;99.90
36416;DHT22;22447;44.530;18.620;2023-04-06T00:02:58;2.90;99.90
36416;DHT22;22447;44.530;18.620;2023-04-06T00:05:24;3.00;99.90
36416;DHT22;22447;44.530;18.620;2023-04-06T00:07:50;3.00;99.90
36416;DHT22;22447;44.530;18.620;2023-04-06T00:10:16;2.90;99.90
36416;DHT22;22447;44.530;18.620;2023-04-06T00:12:42;2.90;99.90
36416;DHT22;22447;44.530;18.620;2023-04-06T00:15:08;2.80;99.90
36416;DHT22;22447;44.530;18.620;2023-04-06T00:17:34;2.80;99.90
36416;DHT22;22447;44.530;18.620;2023-04-06T00:19:59;2.70;99.90
36416;DHT22;22447;44.530;18.620;2023-04-06T00:22:26;2.70;99.90
36416;DHT22;22447;44.530;18.620;2023-04-06T00:24:51;2.70;99.90
36416;DHT22;22447;44.530;18.620;2023-04-06T00:27:17;2.70;99.90
36416;DHT22;22447;44.530;18.620;2023-04-06T00:29:43;2.60;99.90
36416;DHT22;22447;44.530;18.620;2023-04-06T00:32:09;2.60;99.90
36416;DHT22;22447;44.530;18.620;2023-04-06T00:34:35;2.70;99.90
36416;DHT22;22447;44.530;18.620;2023-04-06T00:37:01;2.70;99.90
36416;DHT22;22447;44.530;18.620;2023-04-06T00:39:26;2.70;99.90
36416;DHT22;22447;44.530;18.620;2023-04-06T00:41:52;2.70;99.90
36416;DHT22;22447;44.530;18.620;2023-04-06T00:44:19;2.60;99.90
36416;DHT22;22447;44.530;18.620;2023-04-06T00:46:45;2.60;99.90
36416;DHT22;22447;44.530;18.620;2023-04-06T00:49:11;2.60;99.90
36416;DHT22;22447;44.530;18.620;2023-04-06T00:51:36;2.60;99.90
36416;DHT22;22447;44.530;18.620;2023-04-06T00:54:02;2.60;99.90
36416;DHT22;22447;44.530;18.620;2023-04-06T00:56:31;2.70;99.90
36416;DHT22;22447;44.530;18.620;2023-04-06T00:58:57;2.80;99.90
36416;DHT22;22447;44.530;18.620;2023-04-06T01:01:23;2.80;99.90
36416;DHT22;22447;44.530;18.620;2023-04-06T01:03:52;2.80;99.90
36416;DHT22;22447;44.530;18.620;2023-04-06T01:06:19;2.80;99.90
36416;DHT22;22447;44.530;18.620;2023-04-06T01:08:54;2.70;99.90
36416;DHT22;22447;44.530;18.620;2023-04-06T01:11:21;2.60;99.90
36416;DHT22;22447;44.530;18.620;2023-04-06T01:13:49;2.60;99.90
36416;DHT22;22447;44.530;18.620;2023-04-06T01:16:53;2.60;99.90
36416;DHT22;22447;44.530;18.620;2023-04-06T01:19:25;2.60;99.90
36416;DHT22;22447;44.530;18.620;2023-04-06T01:21:52;2.60;99.90
36416;DHT22;22447;44.530;18.620;2023-04-06T01:24:37;2.70;99.90
36416;DHT22;22447;44.530;18.620;2023-04-06T01:27:21;2.70;99.90
36416;DHT22;22447;44.530;18.620;2023-04-06T01:30:19;2.80;99.90
36416;DHT22;22447;44.530;18.620;2023-04-06T01:32:52;2.80;99.90
36416;DHT22;22447;44.530;18.620;2023-04-06T01:35:37;2.80;99.90
36416;DHT22;22447;44.530;18.620;2023-04-06T01:38:17;2.70;99.90
36416;DHT22;22447;44.530;18.620;2023-04-06T01:40:44;2.70;99.90
36416;DHT22;22447;44.530;18.620;2023-04-06T01:43:11;2.70;99.90
36416;DHT22;22447;44.530;18.620;2023-04-06T01:45:57;2.60;99.90
36416;DHT22;22447;44.530;18.620;2023-04-06T01:48:28;2.60;99.90
36416;DHT22;22447;44.530;18.620;2023-04-06T01:50:54;2.70;99.90
36416;DHT22;22447;44.530;18.620;2023-04-06T01:53:26;2.60;99.90
36416;DHT22;22447;44.530;18.620;2023-04-06T01:55:57;2.60;99.90
36416;DHT22;22447;44.530;18.620;2023-04-06T01:58:33;2.50;99.90
36416;DHT22;22447;44.530;18.620;2023-04-06T02:00:59;2.60;99.90
36416;DHT22;22447;44.530;18.620;2023-04-06T02:03:31;2.50;99.90
36416;DHT22;22447;44.530;18.620;2023-04-06T02:06:04;2.60;99.90
36416;DHT22;22447;44.530;18.620;2023-04-06T02:08:35;2.60;99.90
36416;DHT22;22447;44.530;18.620;2023-04-06T02:11:01;2.60;99.90
36416;DHT22;22447;44.530;18.620;2023-04-06T02:13:32;2.60;99.90
36416;DHT22;22447;44.530;18.620;2023-04-06T02:15:58;2.70;99.90
36416;DHT22;22447;44.530;18.620;2023-04-06T02:18:26;2.70;99.90
36416;DHT22;22447;44.530;18.620;2023-04-06T02:20:51;2.70;99.90
36416;DHT22;22447;44.530;18.620;2023-04-06T02:23:18;2.70;99.90
36416;DHT22;22447;44.530;18.620;2023-04-06T02:25:43;2.70;99.90
36416;DHT22;22447;44.530;18.620;2023-04-06T02:28:09;2.70;99.90
36416;DHT22;22447;44.530;18.620;2023-04-06T02:30:35;2.90;99.90
36416;DHT22;22447;44.530;18.620;2023-04-06T02:33:01;2.90;99.90
36416;DHT22;22447;44.530;18.620;2023-04-06T02:35:30;2.70;99.90
36416;DHT22;22447;44.530;18.620;2023-04-06T02:37:56;2.70;99.90
36416;DHT22;22447;44.530;18.620;2023-04-06T02:40:22;2.80;99.90
36416;DHT22;22447;44.530;18.620;2023-04-06T02:42:48;2.80;99.90
36416;DHT22;22447;44.530;18.620;2023-04-06T02:45:17;2.80;99.90
36416;DHT22;22447;44.530;18.620;2023-04-06T02:47:46;2.90;99.90
36416;DHT22;22447;44.530;18.620;2023-04-06T02:50:15;3.00;99.90
36416;DHT22;22447;44.530;18.620;2023-04-06T02:52:48;2.90;99.90
36416;DHT22;22447;44.530;18.620;2023-04-06T02:55:14;2.90;99.90
36416;DHT22;22447;44.530;18.620;2023-04-06T02:57:40;2.80;99.90
36416;DHT22;22447;44.530;18.620;2023-04-06T03:00:06;2.70;99.90
36416;DHT22;22447;44.530;18.620;2023-04-06T03:02:38;2.60;99.90
36416;DHT22;22447;44.530;18.620;2023-04-06T03:05:08;2.40;99.90
36416;DHT22;22447;44.530;18.620;2023-04-06T03:07:38;2.40;99.90
36416;DHT22;22447;44.530;18.620;2023-04-06T03:10:07;2.30;99.90
36416;DHT22;22447;44.530;18.620;2023-04-06T03:12:32;2.30;99.90
36416;DHT22;22447;44.530;18.620;2023-04-06T03:15:16;2.20;99.90
36416;DHT22;22447;44.530;18.620;2023-04-06T03:17:47;2.10;99.90
36416;DHT22;22447;44.530;18.620;2023-04-06T03:20:29;2.00;99.90
36416;DHT22;22447;44.530;18.620;2023-04-06T03:22:55;2.00;99.90
36416;DHT22;22447;44.530;18.620;2023-04-06T03:25:25;1.90;99.90
36416;DHT22;22447;44.530;18.620;2023-04-06T03:27:56;1.90;99.90
36416;DHT22;22447;44.530;18.620;2023-04-06T03:30:21;1.90;99.90
36416;DHT22;22447;44.530;18.620;2023-04-06T03:32:47;2.00;99.90
36416;DHT22;22447;44.530;18.620;2023-04-06T03:35:13;2.00;99.90
36416;DHT22;22447;44.530;18.620;2023-04-06T03:37:39;1.80;99.90
36416;DHT22;22447;44.530;18.620;2023-04-06T03:40:06;1.90;99.90
36416;DHT22;22447;44.530;18.620;2023-04-06T03:42:32;1.80;99.90
36416;DHT22;22447;44.530;18.620;2023-04-06T03:45:04;1.80;99.90
36416;DHT22;22447;44.530;18.620;2023-04-06T03:47:31;1.80;99.90
36416;DHT22;22447;44.530;18.620;2023-04-06T03:50:01;1.90;99.90
36416;DHT22;22447;44.530;18.620;2023-04-06T03:52:29;1.70;99.90
36416;DHT22;22447;44.530;18.620;2023-04-06T03:54:55;1.70;99.90
36416;DHT22;22447;44.530;18.620;2023-04-06T03:57:21;1.70;99.90
36416;DHT22;22447;44.530;18.620;2023-04-06T03:59:47;1.70;99.90
36416;DHT22;22447;44.530;18.620;2023-04-06T04:02:13;1.60;99.90
36416;DHT22;22447;44.530;18.620;2023-04-06T04:04:38;1.70;99.90
36416;DHT22;22447;44.530;18.620;2023-04-06T04:07:04;1.60;99.90
36416;DHT22;22447;44.530;18.620;2023-04-06T04:09:30;1.50;99.90
36416;DHT22;22447;44.530;18.620;2023-04-06T04:11:56;1.50;99.90
36416;DHT22;22447;44.530;18.620;2023-04-06T04:14:22;1.40;99.90
36416;DHT22;22447;44.530;18.620;2023-04-06T04:16:48;1.40;99.90
36416;DHT22;22447;44.530;18.620;2023-04-06T04:19:14;1.40;99.90
36416;DHT22;22447;44.530;18.620;2023-04-06T04:21:43;1.40;99.90
36416;DHT22;22447;44.530;18.620;2023-04-06T04:24:11;1.30;99.90
36416;DHT22;22447;44.530;18.620;2023-04-06T04:26:37;1.30;99.90
36416;DHT22;22447;44.530;18.620;2023-04-06T04:29:05;1.30;99.90
36416;DHT22;22447;44.530;18.620;2023-04-06T04:31:31;1.30;99.90
36416;DHT22;22447;44.530;18.620;2023-04-06T04:34:00;1.30;99.90
36416;DHT22;22447;44.530;18.620;2023-04-06T04:36:30;1.40;99.90
36416;DHT22;22447;44.530;18.620;2023-04-06T04:38:58;1.30;99.90
36416;DHT22;22447;44.530;18.620;2023-04-06T04:41:28;1.30;99.90
36416;DHT22;22447;44.530;18.620;2023-04-06T04:43:54;1.40;99.90
36416;DHT22;22447;44.530;18.620;2023-04-06T04:46:23;1.50;99.90
36416;DHT22;22447;44.530;18.620;2023-04-06T04:48:50;1.50;99.90
36416;DHT22;22447;44.530;18.620;2023-04-06T04:51:16;1.40;99.90
36416;DHT22;22447;44.530;18.620;2023-04-06T04:54:02;1.50;99.90
36416;DHT22;22447;44.530;18.620;2023-04-06T04:56:30;1.60;99.90
36416;DHT22;22447;44.530;18.620;2023-04-06T04:59:05;1.70;99.90
36416;DHT22;22447;44.530;18.620;2023-04-06T05:01:34;1.70;99.90
36416;DHT22;22447;44.530;18.620;2023-04-06T05:04:01;1.80;99.90
36416;DHT22;22447;44.530;18.620;2023-04-06T05:06:27;1.90;99.90
36416;DHT22;22447;44.530;18.620;2023-04-06T05:08:54;2.00;99.90
36416;DHT22;22447;44.530;18.620;2023-04-06T05:11:21;2.00;99.90
36416;DHT22;22447;44.530;18.620;2023-04-06T05:13:54;2.00;99.90
36416;DHT22;22447;44.530;18.620;2023-04-06T05:16:22;2.10;99.90
36416;DHT22;22447;44.530;18.620;2023-04-06T05:18:49;2.20;99.90
36416;DHT22;22447;44.530;18.620;2023-04-06T05:21:16;2.20;99.90
36416;DHT22;22447;44.530;18.620;2023-04-06T05:23:55;2.30;99.90
36416;DHT22;22447;44.530;18.620;2023-04-06T05:26:21;2.40;99.90
36416;DHT22;22447;44.530;18.620;2023-04-06T05:28:50;2.50;99.90
36416;DHT22;22447;44.530;18.620;2023-04-06T05:31:17;2.60;99.90
36416;DHT22;22447;44.530;18.620;2023-04-06T05:33:47;2.60;99.90
36416;DHT22;22447;44.530;18.620;2023-04-06T05:36:15;2.70;99.90
36416;DHT22;22447;44.530;18.620;2023-04-06T05:38:44;2.60;99.90
36416;DHT22;22447;44.530;18.620;2023-04-06T05:41:33;2.70;99.90
36416;DHT22;22447;44.530;18.620;2023-04-06T05:43:59;2.80;99.90
36416;DHT22;22447;44.530;18.620;2023-04-06T05:46:26;2.90;99.90
36416;DHT22;22447;44.530;18.620;2023-04-06T05:48:54;2.70;99.90
36416;DHT22;22447;44.530;18.620;2023-04-06T05:51:24;3.00;99.90
36416;DHT22;22447;44.530;18.620;2023-04-06T05:53:50;3.10;99.90
36416;DHT22;22447;44.530;18.620;2023-04-06T05:56:16;3.30;99.90
36416;DHT22;22447;44.530;18.620;2023-04-06T05:58:43;3.40;99.90
36416;DHT22;22447;44.530;18.620;2023-04-06T06:01:12;3.20;99.90
36416;DHT22;22447;44.530;18.620;2023-04-06T06:03:41;3.20;99.90
36416;DHT22;22447;44.530;18.620;2023-04-06T06:06:07;3.40;99.90
36416;DHT22;22447;44.530;18.620;2023-04-06T06:08:44;3.50;99.90
36416;DHT22;22447;44.530;18.620;2023-04-06T06:11:13;3.60;99.90
36416;DHT22;22447;44.530;18.620;2023-04-06T06:13:40;3.70;99.90
36416;DHT22;22447;44.530;18.620;2023-04-06T06:16:06;3.80;99.90
36416;DHT22;22447;44.530;18.620;2023-04-06T06:18:36;3.70;99.90
36416;DHT22;22447;44.530;18.620;2023-04-06T06:21:03;3.90;99.90
36416;DHT22;22447;44.530;18.620;2023-04-06T06:23:35;4.00;99.90
36416;DHT22;22447;44.530;18.620;2023-04-06T06:26:08;4.20;99.90
36416;DHT22;22447;44.530;18.620;2023-04-06T06:28:33;4.40;99.90
36416;DHT22;22447;44.530;18.620;2023-04-06T06:31:00;4.60;99.90
36416;DHT22;22447;44.530;18.620;2023-04-06T06:33:26;4.90;99.90
36416;DHT22;22447;44.530;18.620;2023-04-06T06:35:53;5.20;99.90
36416;DHT22;22447;44.530;18.620;2023-04-06T06:38:19;5.30;99.90
36416;DHT22;22447;44.530;18.620;2023-04-06T06:40:46;5.50;99.90
36416;DHT22;22447;44.530;18.620;2023-04-06T06:43:12;5.70;99.90
36416;DHT22;22447;44.530;18.620;2023-04-06T06:45:56;5.90;99.90
36416;DHT22;22447;44.530;18.620;2023-04-06T06:48:24;6.10;99.90
36416;DHT22;22447;44.530;18.620;2023-04-06T06:50:50;6.30;99.90
36416;DHT22;22447;44.530;18.620;2023-04-06T06:53:16;6.40;99.90
36416;DHT22;22447;44.530;18.620;2023-04-06T06:55:42;6.60;99.90
36416;DHT22;22447;44.530;18.620;2023-04-06T06:58:09;6.50;99.90
36416;DHT22;22447;44.530;18.620;2023-04-06T07:00:35;6.60;99.90
36416;DHT22;22447;44.530;18.620;2023-04-06T07:03:01;6.60;99.90
36416;DHT22;22447;44.530;18.620;2023-04-06T07:05:27;6.50;99.90
36416;DHT22;22447;44.530;18.620;2023-04-06T07:07:54;6.40;99.90
36416;DHT22;22447;44.530;18.620;2023-04-06T07:10:20;6.40;99.90
36416;DHT22;22447;44.530;18.620;2023-04-06T07:12:46;6.40;99.90
36416;DHT22;22447;44.530;18.620;2023-04-06T07:15:12;6.30;99.90
36416;DHT22;22447;44.530;18.620;2023-04-06T07:17:38;6.30;99.90
36416;DHT22;22447;44.530;18.620;2023-04-06T07:20:04;6.50;99.90
36416;DHT22;22447;44.530;18.620;2023-04-06T07:22:30;6.80;99.90
36416;DHT22;22447;44.530;18.620;2023-04-06T07:24:56;6.90;99.90
36416;DHT22;22447;44.530;18.620;2023-04-06T07:27:22;7.10;99.90
36416;DHT22;22447;44.530;18.620;2023-04-06T07:29:48;6.90;99.90
36416;DHT22;22447;44.530;18.620;2023-04-06T07:32:13;7.10;99.90
36416;DHT22;22447;44.530;18.620;2023-04-06T07:34:40;7.40;99.90
36416;DHT22;22447;44.530;18.620;2023-04-06T07:37:06;7.60;99.90
36416;DHT22;22447;44.530;18.620;2023-04-06T07:39:33;7.80;99.90
36416;DHT22;22447;44.530;18.620;2023-04-06T07:41:59;7.90;99.90
36416;DHT22;22447;44.530;18.620;2023-04-06T07:44:25;8.00;99.90
36416;DHT22;22447;44.530;18.620;2023-04-06T07:46:51;8.20;99.90
36416;DHT22;22447;44.530;18.620;2023-04-06T07:49:20;8.20;99.90
36416;DHT22;22447;44.530;18.620;2023-04-06T07:51:49;8.00;99.90
36416;DHT22;22447;44.530;18.620;2023-04-06T07:54:15;8.00;99.90
36416;DHT22;22447;44.530;18.620;2023-04-06T07:56:41;8.20;99.90
36416;DHT22;22447;44.530;18.620;2023-04-06T07:59:07;8.70;99.90
36416;DHT22;22447;44.530;18.620;2023-04-06T08:01:33;9.20;99.90
36416;DHT22;22447;44.530;18.620;2023-04-06T08:03:58;9.50;99.90
36416;DHT22;22447;44.530;18.620;2023-04-06T08:06:26;9.70;99.90
36416;DHT22;22447;44.530;18.620;2023-04-06T08:08:52;10.10;99.90
36416;DHT22;22447;44.530;18.620;2023-04-06T08:11:18;10.20;99.90
36416;DHT22;22447;44.530;18.620;2023-04-06T08:13:44;10.20;99.90
36416;DHT22;22447;44.530;18.620;2023-04-06T08:16:10;10.10;99.90
36416;DHT22;22447;44.530;18.620;2023-04-06T08:18:35;10.30;99.90
36416;DHT22;22447;44.530;18.620;2023-04-06T08:21:01;9.90;99.90
36416;DHT22;22447;44.530;18.620;2023-04-06T08:23:27;9.80;99.90
36416;DHT22;22447;44.530;18.620;2023-04-06T08:25:53;9.60;99.90
36416;DHT22;22447;44.530;18.620;2023-04-06T08:28:25;9.80;99.90
36416;DHT22;22447;44.530;18.620;2023-04-06T08:30:50;9.80;99.90
36416;DHT22;22447;44.530;18.620;2023-04-06T08:33:16;10.10;99.90
36416;DHT22;22447;44.530;18.620;2023-04-06T08:35:42;10.10;99.90
36416;DHT22;22447;44.530;18.620;2023-04-06T08:38:08;10.30;99.90
36416;DHT22;22447;44.530;18.620;2023-04-06T08:40:39;10.20;99.90
36416;DHT22;22447;44.530;18.620;2023-04-06T08:43:13;10.30;99.90
36416;DHT22;22447;44.530;18.620;2023-04-06T08:45:40;10.80;99.90
36416;DHT22;22447;44.530;18.620;2023-04-06T08:48:05;11.10;99.90
36416;DHT22;22447;44.530;18.620;2023-04-06T08:50:32;10.90;99.90
36416;DHT22;22447;44.530;18.620;2023-04-06T08:52:58;10.80;99.90
36416;DHT22;22447;44.530;18.620;2023-04-06T08:55:24;10.90;99.90
36416;DHT22;22447;44.530;18.620;2023-04-06T08:57:50;11.10;99.90
36416;DHT22;22447;44.530;18.620;2023-04-06T09:00:18;11.20;99.90
36416;DHT22;22447;44.530;18.620;2023-04-06T09:02:45;11.40;99.90
36416;DHT22;22447;44.530;18.620;2023-04-06T09:05:11;12.10;99.90
36416;DHT22;22447;44.530;18.620;2023-04-06T09:07:37;12.50;99.90
36416;DHT22;22447;44.530;18.620;2023-04-06T09:10:06;12.70;99.90
36416;DHT22;22447;44.530;18.620;2023-04-06T09:12:32;12.90;99.90
36416;DHT22;22447;44.530;18.620;2023-04-06T09:14:58;12.80;99.90
36416;DHT22;22447;44.530;18.620;2023-04-06T09:17:25;12.60;99.90
36416;DHT22;22447;44.530;18.620;2023-04-06T09:19:51;12.80;99.90
36416;DHT22;22447;44.530;18.620;2023-04-06T09:22:17;13.00;99.90
36416;DHT22;22447;44.530;18.620;2023-04-06T09:24:44;13.00;99.90
36416;DHT22;22447;44.530;18.620;2023-04-06T09:27:11;13.00;99.90
36416;DHT22;22447;44.530;18.620;2023-04-06T09:29:36;12.70;99.90
36416;DHT22;22447;44.530;18.620;2023-04-06T09:32:03;12.80;99.90
36416;DHT22;22447;44.530;18.620;2023-04-06T09:34:33;12.80;99.90
36416;DHT22;22447;44.530;18.620;2023-04-06T09:36:59;12.70;99.90
36416;DHT22;22447;44.530;18.620;2023-04-06T09:39:25;12.90;99.90
36416;DHT22;22447;44.530;18.620;2023-04-06T09:41:51;12.80;99.90
36416;DHT22;22447;44.530;18.620;2023-04-06T09:44:17;12.50;99.90
36416;DHT22;22447;44.530;18.620;2023-04-06T09:46:44;12.30;99.90
36416;DHT22;22447;44.530;18.620;2023-04-06T09:49:11;11.90;99.90
36416;DHT22;22447;44.530;18.620;2023-04-06T09:51:41;11.90;99.90
36416;DHT22;22447;44.530;18.620;2023-04-06T09:54:08;12.10;99.90
36416;DHT22;22447;44.530;18.620;2023-04-06T09:59:13;12.00;99.90
36416;DHT22;22447;44.530;18.620;2023-04-06T10:01:40;11.50;99.90
36416;DHT22;22447;44.530;18.620;2023-04-06T10:06:32;11.40;99.90
36416;DHT22;22447;44.530;18.620;2023-04-06T10:09:01;11.40;99.90
36416;DHT22;22447;44.530;18.620;2023-04-06T10:11:27;11.60;99.90
36416;DHT22;22447;44.530;18.620;2023-04-06T10:13:57;11.80;99.90
36416;DHT22;22447;44.530;18.620;2023-04-06T10:16:32;12.30;99.90
36416;DHT22;22447;44.530;18.620;2023-04-06T10:19:00;12.50;99.90
36416;DHT22;22447;44.530;18.620;2023-04-06T10:21:26;12.80;99.90
36416;DHT22;22447;44.530;18.620;2023-04-06T10:23:59;12.90;99.90
36416;DHT22;22447;44.530;18.620;2023-04-06T10:26:28;13.00;99.90
36416;DHT22;22447;44.530;18.620;2023-04-06T10:28:54;13.30;99.90
36416;DHT22;22447;44.530;18.620;2023-04-06T10:31:24;12.50;99.90
36416;DHT22;22447;44.530;18.620;2023-04-06T10:33:54;12.70;99.90
36416;DHT22;22447;44.530;18.620;2023-04-06T10:36:24;13.00;99.90
36416;DHT22;22447;44.530;18.620;2023-04-06T10:38:58;13.00;99.90
36416;DHT22;22447;44.530;18.620;2023-04-06T10:41:31;13.40;99.90
36416;DHT22;22447;44.530;18.620;2023-04-06T10:43:57;13.00;99.90
36416;DHT22;22447;44.530;18.620;2023-04-06T10:46:28;13.30;99.90
36416;DHT22;22447;44.530;18.620;2023-04-06T10:48:53;13.50;99.90
36416;DHT22;22447;44.530;18.620;2023-04-06T10:51:23;14.10;99.90
36416;DHT22;22447;44.530;18.620;2023-04-06T10:53:50;14.10;99.90
36416;DHT22;22447;44.530;18.620;2023-04-06T10:56:18;14.20;99.90
36416;DHT22;22447;44.530;18.620;2023-04-06T10:58:52;13.90;99.90
36416;DHT22;22447;44.530;18.620;2023-04-06T11:01:19;14.10;99.90
36416;DHT22;22447;44.530;18.620;2023-04-06T11:06:10;14.50;99.90
36416;DHT22;22447;44.530;18.620;2023-04-06T11:08:37;14.50;99.90
36416;DHT22;22447;44.530;18.620;2023-04-06T11:11:08;14.40;99.90
36416;DHT22;22447;44.530;18.620;2023-04-06T11:14:16;14.20;99.90
36416;DHT22;22447;44.530;18.620;2023-04-06T11:16:24;14.30;99.90
36416;DHT22;22447;44.530;18.620;2023-04-06T11:18:58;14.30;99.90
36416;DHT22;22447;44.530;18.620;2023-04-06T11:21:36;14.10;99.90
36416;DHT22;22447;44.530;18.620;2023-04-06T11:26:36;13.70;99.90
36416;DHT22;22447;44.530;18.620;2023-04-06T11:29:02;14.20;99.90
36416;DHT22;22447;44.530;18.620;2023-04-06T11:31:28;14.30;99.90
36416;DHT22;22447;44.530;18.620;2023-04-06T11:33:57;14.50;99.90
36416;DHT22;22447;44.530;18.620;2023-04-06T11:36:23;13.90;99.90
36416;DHT22;22447;44.530;18.620;2023-04-06T11:38:51;13.70;99.90
36416;DHT22;22447;44.530;18.620;2023-04-06T11:41:17;13.70;99.90
36416;DHT22;22447;44.530;18.620;2023-04-06T11:43:49;14.00;99.90
36416;DHT22;22447;44.530;18.620;2023-04-06T11:46:17;14.20;99.90
36416;DHT22;22447;44.530;18.620;2023-04-06T11:48:46;14.10;99.90
36416;DHT22;22447;44.530;18.620;2023-04-06T11:51:12;13.80;99.90
36416;DHT22;22447;44.530;18.620;2023-04-06T11:53:44;13.70;99.90
36416;DHT22;22447;44.530;18.620;2023-04-06T11:56:11;13.80;99.90
36416;DHT22;22447;44.530;18.620;2023-04-06T11:58:37;13.90;99.90
36416;DHT22;22447;44.530;18.620;2023-04-06T12:01:03;13.70;99.90
36416;DHT22;22447;44.530;18.620;2023-04-06T12:03:29;13.30;99.90
36416;DHT22;22447;44.530;18.620;2023-04-06T12:05:55;13.40;99.90
36416;DHT22;22447;44.530;18.620;2023-04-06T12:08:21;13.70;99.90
36416;DHT22;22447;44.530;18.620;2023-04-06T12:10:50;14.00;99.90
36416;DHT22;22447;44.530;18.620;2023-04-06T12:13:16;12.90;99.90
36416;DHT22;22447;44.530;18.620;2023-04-06T12:15:42;13.20;99.90
36416;DHT22;22447;44.530;18.620;2023-04-06T12:18:08;13.30;99.90
36416;DHT22;22447;44.530;18.620;2023-04-06T12:20:34;13.00;99.90
36416;DHT22;22447;44.530;18.620;2023-04-06T12:23:00;12.90;99.90
36416;DHT22;22447;44.530;18.620;2023-04-06T12:25:26;13.30;99.90
36416;DHT22;22447;44.530;18.620;2023-04-06T12:27:52;13.70;99.90
36416;DHT22;22447;44.530;18.620;2023-04-06T12:30:18;13.40;99.90
36416;DHT22;22447;44.530;18.620;2023-04-06T12:32:43;13.70;99.90
36416;DHT22;22447;44.530;18.620;2023-04-06T12:35:09;14.00;99.90
36416;DHT22;22447;44.530;18.620;2023-04-06T12:37:37;14.40;99.90
36416;DHT22;22447;44.530;18.620;2023-04-06T12:40:03;14.50;99.90
36416;DHT22;22447;44.530;18.620;2023-04-06T12:42:29;14.10;99.90
36416;DHT22;22447;44.530;18.620;2023-04-06T12:44:55;14.00;99.90
36416;DHT22;22447;44.530;18.620;2023-04-06T12:47:21;14.00;99.90
36416;DHT22;22447;44.530;18.620;2023-04-06T12:49:48;14.20;99.90
36416;DHT22;22447;44.530;18.620;2023-04-06T12:52:13;13.90;99.90
36416;DHT22;22447;44.530;18.620;2023-04-06T12:54:41;13.90;99.90
36416;DHT22;22447;44.530;18.620;2023-04-06T12:57:07;13.90;99.90
36416;DHT22;22447;44.530;18.620;2023-04-06T12:59:32;13.40;99.90
36416;DHT22;22447;44.530;18.620;2023-04-06T13:02:00;13.60;99.90
36416;DHT22;22447;44.530;18.620;2023-04-06T13:04:26;13.90;99.90
36416;DHT22;22447;44.530;18.620;2023-04-06T13:06:52;13.90;99.90
36416;DHT22;22447;44.530;18.620;2023-04-06T13:09:18;14.50;99.90
36416;DHT22;22447;44.530;18.620;2023-04-06T13:11:43;14.60;99.90
36416;DHT22;22447;44.530;18.620;2023-04-06T13:14:10;14.60;99.90
36416;DHT22;22447;44.530;18.620;2023-04-06T13:16:35;14.60;99.90
36416;DHT22;22447;44.530;18.620;2023-04-06T13:19:01;15.00;99.90
36416;DHT22;22447;44.530;18.620;2023-04-06T13:21:28;15.20;99.90
36416;DHT22;22447;44.530;18.620;2023-04-06T13:23:53;15.10;99.90
36416;DHT22;22447;44.530;18.620;2023-04-06T13:26:19;15.40;99.90
36416;DHT22;22447;44.530;18.620;2023-04-06T13:28:45;15.10;99.90
36416;DHT22;22447;44.530;18.620;2023-04-06T13:31:11;15.20;99.90
36416;DHT22;22447;44.530;18.620;2023-04-06T13:33:37;15.30;99.90
36416;DHT22;22447;44.530;18.620;2023-04-06T13:36:04;14.90;99.90
36416;DHT22;22447;44.530;18.620;2023-04-06T13:38:30;15.10;99.90
36416;DHT22;22447;44.530;18.620;2023-04-06T13:40:56;15.20;99.90
36416;DHT22;22447;44.530;18.620;2023-04-06T13:43:21;15.40;99.90
36416;DHT22;22447;44.530;18.620;2023-04-06T13:45:51;15.50;99.90
36416;DHT22;22447;44.530;18.620;2023-04-06T13:48:17;15.40;99.90
36416;DHT22;22447;44.530;18.620;2023-04-06T13:50:43;14.40;99.90
36416;DHT22;22447;44.530;18.620;2023-04-06T13:53:09;14.60;99.90
36416;DHT22;22447;44.530;18.620;2023-04-06T13:55:35;14.70;99.90
36416;DHT22;22447;44.530;18.620;2023-04-06T13:58:01;14.60;99.90
36416;DHT22;22447;44.530;18.620;2023-04-06T14:00:27;14.90;99.90
36416;DHT22;22447;44.530;18.620;2023-04-06T14:02:53;14.50;99.90
36416;DHT22;22447;44.530;18.620;2023-04-06T14:05:20;14.60;99.90
36416;DHT22;22447;44.530;18.620;2023-04-06T14:07:46;14.50;99.90
36416;DHT22;22447;44.530;18.620;2023-04-06T14:10:11;14.50;99.90
36416;DHT22;22447;44.530;18.620;2023-04-06T14:12:40;14.50;99.90
36416;DHT22;22447;44.530;18.620;2023-04-06T14:15:07;14.90;99.90
36416;DHT22;22447;44.530;18.620;2023-04-06T14:17:33;14.90;99.90
36416;DHT22;22447;44.530;18.620;2023-04-06T14:19:59;15.00;99.90
36416;DHT22;22447;44.530;18.620;2023-04-06T14:22:25;14.80;99.90
36416;DHT22;22447;44.530;18.620;2023-04-06T14:24:51;14.20;99.90
36416;DHT22;22447;44.530;18.620;2023-04-06T14:27:17;13.80;99.90
36416;DHT22;22447;44.530;18.620;2023-04-06T14:29:43;13.80;99.90
36416;DHT22;22447;44.530;18.620;2023-04-06T14:32:08;13.50;99.90
36416;DHT22;22447;44.530;18.620;2023-04-06T14:34:36;13.20;99.90
36416;DHT22;22447;44.530;18.620;2023-04-06T14:37:02;13.50;99.90
36416;DHT22;22447;44.530;18.620;2023-04-06T14:39:28;13.50;99.90
36416;DHT22;22447;44.530;18.620;2023-04-06T14:41:54;13.30;99.90
36416;DHT22;22447;44.530;18.620;2023-04-06T14:44:20;12.40;99.90
36416;DHT22;22447;44.530;18.620;2023-04-06T14:46:46;12.50;99.90
36416;DHT22;22447;44.530;18.620;2023-04-06T14:49:12;12.50;99.90
36416;DHT22;22447;44.530;18.620;2023-04-06T14:51:38;12.50;99.90
36416;DHT22;22447;44.530;18.620;2023-04-06T14:54:04;12.50;99.90
36416;DHT22;22447;44.530;18.620;2023-04-06T14:56:30;12.30;99.90
36416;DHT22;22447;44.530;18.620;2023-04-06T14:58:59;12.20;99.90
36416;DHT22;22447;44.530;18.620;2023-04-06T15:01:28;12.00;99.90
36416;DHT22;22447;44.530;18.620;2023-04-06T15:03:54;11.80;99.90
36416;DHT22;22447;44.530;18.620;2023-04-06T15:06:20;11.80;99.90
36416;DHT22;22447;44.530;18.620;2023-04-06T15:08:46;11.90;99.90
36416;DHT22;22447;44.530;18.620;2023-04-06T15:11:12;11.80;99.90
36416;DHT22;22447;44.530;18.620;2023-04-06T15:13:39;11.90;99.90
36416;DHT22;22447;44.530;18.620;2023-04-06T15:16:05;11.90;99.90
36416;DHT22;22447;44.530;18.620;2023-04-06T15:18:31;11.80;99.90
36416;DHT22;22447;44.530;18.620;2023-04-06T15:20:57;11.80;99.90
36416;DHT22;22447;44.530;18.620;2023-04-06T15:23:23;11.60;99.90
36416;DHT22;22447;44.530;18.620;2023-04-06T15:25:48;11.50;99.90
36416;DHT22;22447;44.530;18.620;2023-04-06T15:28:15;11.60;99.90
36416;DHT22;22447;44.530;18.620;2023-04-06T15:30:40;11.40;99.90
36416;DHT22;22447;44.530;18.620;2023-04-06T15:33:07;11.50;99.90
36416;DHT22;22447;44.530;18.620;2023-04-06T15:35:33;11.10;99.90
36416;DHT22;22447;44.530;18.620;2023-04-06T15:37:59;11.30;99.90